Time;durP1;ratioP1;P1;durP2;ratioP2;P2;SDS_P1;SDS_P2;PMS_P1;PMS_P2;Temp;Humidity;BMP_temperature;BMP_pressure;BME280_temperature;BME280_humidity;BME280_pressure;Samples;Min_cycle;Max_cycle;Signal;HPM_P1;HPM_P2
2023/12/10 00:01:54;;;;;;;;;;;10.30;99.90;;;;;;5056106;28;19948;-65
2023/12/10 00:04:21;;;;;;;;;;;10.20;99.90;;;;;;5067070;28;19977;-65
2023/12/10 00:06:48;;;;;;;;;;;10.30;99.90;;;;;;5054473;28;20429;-66
2023/12/10 00:09:15;;;;;;;;;;;10.30;99.90;;;;;;5061094;28;19928;-66
2023/12/10 00:11:43;;;;;;;;;;;10.30;99.90;;;;;;5069383;28;20394;-66
2023/12/10 00:14:10;;;;;;;;;;;10.20;99.90;;;;;;5065607;28;20569;-65
2023/12/10 00:16:37;;;;;;;;;;;10.30;99.90;;;;;;5059837;28;19925;-66
2023/12/10 00:19:06;;;;;;;;;;;10.30;99.90;;;;;;5054948;28;20341;-66
2023/12/10 00:21:34;;;;;;;;;;;10.30;99.90;;;;;;5053630;28;19931;-66
2023/12/10 00:24:00;;;;;;;;;;;10.20;99.90;;;;;;5059531;28;19982;-66
2023/12/10 00:26:27;;;;;;;;;;;10.20;99.90;;;;;;5074873;28;19925;-66
2023/12/10 00:28:55;;;;;;;;;;;10.20;99.90;;;;;;5067669;28;19970;-66
2023/12/10 00:31:22;;;;;;;;;;;10.20;99.90;;;;;;5055443;28;19971;-65
2023/12/10 00:33:49;;;;;;;;;;;10.20;99.90;;;;;;5068411;28;19975;-65
2023/12/10 00:36:16;;;;;;;;;;;10.10;99.90;;;;;;5074908;28;19925;-65
2023/12/10 00:38:43;;;;;;;;;;;10.20;99.90;;;;;;5063878;28;19924;-65
2023/12/10 00:41:11;;;;;;;;;;;10.20;99.90;;;;;;5071396;28;19978;-65
2023/12/10 00:43:38;;;;;;;;;;;10.20;99.90;;;;;;5073482;28;19924;-66
2023/12/10 00:46:07;;;;;;;;;;;10.20;99.90;;;;;;5065377;28;19978;-65
2023/12/10 00:48:34;;;;;;;;;;;10.20;99.90;;;;;;5058762;28;19940;-66
2023/12/10 00:51:01;;;;;;;;;;;10.20;99.90;;;;;;5066935;28;19932;-67
2023/12/10 00:53:28;;;;;;;;;;;10.20;99.90;;;;;;5054033;28;19978;-66
2023/12/10 00:55:54;;;;;;;;;;;10.20;99.90;;;;;;5052818;28;20279;-65
2023/12/10 00:58:21;;;;;;;;;;;10.10;99.90;;;;;;5067087;28;19933;-66
2023/12/10 01:00:48;;;;;;;;;;;10.10;99.90;;;;;;5071283;28;20011;-65
2023/12/10 01:03:16;;;;;;;;;;;10.10;99.90;;;;;;5063706;28;19925;-65
2023/12/10 01:05:44;;;;;;;;;;;10.10;99.90;;;;;;5073370;28;19928;-66
2023/12/10 01:08:10;;;;;;;;;;;10.10;99.90;;;;;;5063649;28;19936;-66
2023/12/10 01:10:37;;;;;;;;;;;10.00;99.90;;;;;;5069222;28;21384;-65
2023/12/10 01:13:04;;;;;;;;;;;10.00;99.90;;;;;;5072118;28;19925;-65
2023/12/10 01:15:31;;;;;;;;;;;10.00;99.90;;;;;;5055365;28;19983;-66
2023/12/10 01:18:00;;;;;;;;;;;10.00;99.90;;;;;;5065869;28;20299;-65
2023/12/10 01:20:30;;;;;;;;;;;10.00;99.90;;;;;;5061137;28;19924;-65
2023/12/10 01:22:57;;;;;;;;;;;10.00;99.90;;;;;;5053582;28;19931;-65
2023/12/10 01:25:24;;;;;;;;;;;10.10;99.90;;;;;;5053678;28;19978;-65
2023/12/10 01:27:50;;;;;;;;;;;10.10;99.90;;;;;;5061247;28;19991;-64
2023/12/10 01:30:17;;;;;;;;;;;10.10;99.90;;;;;;5072266;28;20429;-65
2023/12/10 01:32:44;;;;;;;;;;;10.10;99.90;;;;;;5052211;28;19947;-66
2023/12/10 01:35:11;;;;;;;;;;;10.10;99.90;;;;;;5052517;28;19924;-65
2023/12/10 01:37:39;;;;;;;;;;;10.10;99.90;;;;;;5056731;28;19978;-65
2023/12/10 01:40:08;;;;;;;;;;;10.10;99.90;;;;;;5073549;28;20384;-65
2023/12/10 01:42:35;;;;;;;;;;;10.10;99.90;;;;;;5060404;28;19932;-65
2023/12/10 01:45:03;;;;;;;;;;;10.10;99.90;;;;;;5067213;28;20013;-65
2023/12/10 01:47:32;;;;;;;;;;;10.00;99.90;;;;;;5065385;28;19924;-66
2023/12/10 01:49:59;;;;;;;;;;;10.10;99.90;;;;;;5055569;28;19932;-65
2023/12/10 01:52:26;;;;;;;;;;;10.10;99.90;;;;;;5062689;28;19932;-66
2023/12/10 01:54:54;;;;;;;;;;;10.10;99.90;;;;;;5068488;28;20309;-66
2023/12/10 01:57:31;;;;;;;;;;;10.10;99.90;;;;;;5071974;28;19935;-65
2023/12/10 01:59:58;;;;;;;;;;;10.10;99.90;;;;;;5073137;28;20311;-65
2023/12/10 02:02:28;;;;;;;;;;;10.10;99.90;;;;;;5064396;28;19956;-66
2023/12/10 02:04:55;;;;;;;;;;;10.10;99.90;;;;;;5056461;28;20306;-66
2023/12/10 02:07:22;;;;;;;;;;;10.10;99.90;;;;;;5037037;28;19929;-66
2023/12/10 02:09:50;;;;;;;;;;;10.10;99.90;;;;;;5066122;28;19928;-66
2023/12/10 02:12:19;;;;;;;;;;;10.10;99.90;;;;;;5066023;28;19929;-66
2023/12/10 02:14:46;;;;;;;;;;;10.00;99.90;;;;;;5058644;28;19968;-66
2023/12/10 02:17:13;;;;;;;;;;;10.00;99.90;;;;;;5059462;28;19936;-66
2023/12/10 02:19:39;;;;;;;;;;;10.00;99.90;;;;;;5054568;28;19925;-65
2023/12/10 02:22:06;;;;;;;;;;;10.00;99.90;;;;;;5063620;28;19932;-65
2023/12/10 02:24:39;;;;;;;;;;;10.00;99.90;;;;;;5069579;28;19924;-65
2023/12/10 02:27:08;;;;;;;;;;;10.00;99.90;;;;;;5060658;28;19924;-65
2023/12/10 02:29:35;;;;;;;;;;;10.10;99.90;;;;;;5056419;28;19931;-66
2023/12/10 02:32:01;;;;;;;;;;;10.10;99.90;;;;;;5070530;28;19928;-65
2023/12/10 02:34:28;;;;;;;;;;;10.10;99.90;;;;;;5053052;28;19932;-66
2023/12/10 02:36:55;;;;;;;;;;;10.10;99.90;;;;;;5050798;28;19936;-65
2023/12/10 02:39:22;;;;;;;;;;;10.10;99.90;;;;;;5052399;28;19925;-65
2023/12/10 02:41:49;;;;;;;;;;;10.10;99.90;;;;;;5058496;28;19924;-66
2023/12/10 02:44:17;;;;;;;;;;;10.10;99.80;;;;;;5050236;28;19932;-66
2023/12/10 02:46:44;;;;;;;;;;;10.10;99.90;;;;;;5051638;28;19979;-66
2023/12/10 02:49:11;;;;;;;;;;;10.10;99.80;;;;;;5054824;28;19928;-66
2023/12/10 02:51:38;;;;;;;;;;;10.10;99.80;;;;;;5070908;28;19932;-65
2023/12/10 02:54:04;;;;;;;;;;;10.10;99.70;;;;;;5071774;28;19924;-66
2023/12/10 02:56:32;;;;;;;;;;;10.10;99.90;;;;;;5071820;28;19925;-66
2023/12/10 02:58:58;;;;;;;;;;;10.10;99.90;;;;;;5058098;28;20389;-65
2023/12/10 03:01:27;;;;;;;;;;;10.10;99.90;;;;;;5064027;28;19970;-66
2023/12/10 03:03:53;;;;;;;;;;;10.00;99.90;;;;;;5071968;28;19924;-66
2023/12/10 03:06:20;;;;;;;;;;;10.10;99.90;;;;;;5071101;28;20422;-65
2023/12/10 03:08:47;;;;;;;;;;;10.10;99.90;;;;;;5051938;28;20369;-65
2023/12/10 03:11:14;;;;;;;;;;;10.10;99.90;;;;;;5069946;28;19932;-66
2023/12/10 03:13:41;;;;;;;;;;;10.10;99.90;;;;;;5065097;28;19924;-65
2023/12/10 03:16:08;;;;;;;;;;;10.10;99.70;;;;;;5052268;28;20447;-65
2023/12/10 03:18:36;;;;;;;;;;;10.10;99.60;;;;;;5050428;28;19931;-65
2023/12/10 03:21:02;;;;;;;;;;;10.10;99.60;;;;;;5043448;28;19924;-66
2023/12/10 03:23:29;;;;;;;;;;;10.10;99.80;;;;;;5069867;28;19925;-65
2023/12/10 03:25:56;;;;;;;;;;;10.10;99.80;;;;;;5067023;28;19928;-65
2023/12/10 03:28:23;;;;;;;;;;;10.00;99.90;;;;;;5067028;28;19970;-65
2023/12/10 03:30:49;;;;;;;;;;;9.90;99.90;;;;;;5065934;28;19924;-65
2023/12/10 03:33:16;;;;;;;;;;;9.80;99.90;;;;;;5051026;28;19978;-65
2023/12/10 03:35:45;;;;;;;;;;;9.80;99.90;;;;;;5056854;28;19924;-65
2023/12/10 03:38:11;;;;;;;;;;;9.70;99.90;;;;;;5058058;28;20352;-65
2023/12/10 03:40:39;;;;;;;;;;;9.70;99.90;;;;;;5051626;28;20307;-65
2023/12/10 03:43:05;;;;;;;;;;;9.80;99.90;;;;;;5049927;28;19928;-66
2023/12/10 03:45:32;;;;;;;;;;;9.70;99.90;;;;;;5054814;28;19931;-65
2023/12/10 03:47:59;;;;;;;;;;;9.70;99.90;;;;;;5059417;28;19978;-65
2023/12/10 03:50:26;;;;;;;;;;;9.70;99.90;;;;;;5050931;28;19924;-65
2023/12/10 03:52:54;;;;;;;;;;;9.70;99.90;;;;;;5052170;28;19931;-65
2023/12/10 03:55:21;;;;;;;;;;;9.70;99.90;;;;;;5056530;28;20028;-65
2023/12/10 03:57:48;;;;;;;;;;;9.80;99.90;;;;;;5066698;28;20425;-65
2023/12/10 04:00:15;;;;;;;;;;;9.70;99.90;;;;;;5071672;28;19925;-65
2023/12/10 04:02:42;;;;;;;;;;;9.70;99.90;;;;;;5047750;28;20375;-65
2023/12/10 04:05:11;;;;;;;;;;;9.70;99.90;;;;;;5052017;28;20433;-65
2023/12/10 04:07:38;;;;;;;;;;;9.70;99.90;;;;;;5061524;28;19924;-65
2023/12/10 04:10:07;;;;;;;;;;;9.80;99.90;;;;;;5067920;28;19932;-65
2023/12/10 04:12:34;;;;;;;;;;;9.80;99.90;;;;;;5071412;28;19931;-66
2023/12/10 04:15:01;;;;;;;;;;;9.80;99.90;;;;;;5062669;28;20011;-66
2023/12/10 04:17:28;;;;;;;;;;;9.90;99.90;;;;;;5070952;28;19925;-66
2023/12/10 04:19:55;;;;;;;;;;;9.90;99.90;;;;;;5054228;28;19925;-65
2023/12/10 04:22:21;;;;;;;;;;;9.90;99.90;;;;;;5064479;28;19928;-65
2023/12/10 04:24:48;;;;;;;;;;;9.80;99.90;;;;;;5074103;28;19928;-66
2023/12/10 04:27:16;;;;;;;;;;;9.80;99.90;;;;;;5068787;28;19928;-66
2023/12/10 04:29:43;;;;;;;;;;;9.70;99.90;;;;;;5074860;28;19970;-65
2023/12/10 04:32:10;;;;;;;;;;;9.70;99.90;;;;;;5073295;28;19932;-65
2023/12/10 04:34:36;;;;;;;;;;;9.70;99.90;;;;;;5054192;28;19986;-65
2023/12/10 04:37:03;;;;;;;;;;;9.60;99.90;;;;;;5053671;28;20395;-66
2023/12/10 04:39:30;;;;;;;;;;;9.70;99.90;;;;;;5054231;28;19925;-66
2023/12/10 04:41:57;;;;;;;;;;;9.70;99.90;;;;;;5070753;28;20298;-66
2023/12/10 04:44:25;;;;;;;;;;;9.70;99.90;;;;;;5062443;28;19929;-66
2023/12/10 04:46:52;;;;;;;;;;;9.60;99.90;;;;;;5057347;28;19978;-66
2023/12/10 04:49:19;;;;;;;;;;;9.70;99.90;;;;;;5059671;28;20460;-66
2023/12/10 04:51:46;;;;;;;;;;;9.70;99.90;;;;;;5056900;28;20434;-66
2023/12/10 04:54:12;;;;;;;;;;;9.60;99.90;;;;;;5074196;28;19924;-66
2023/12/10 04:56:39;;;;;;;;;;;9.50;99.90;;;;;;5071034;28;19932;-66
2023/12/10 04:59:06;;;;;;;;;;;9.50;99.90;;;;;;5063031;28;19932;-66
2023/12/10 05:01:34;;;;;;;;;;;9.50;99.90;;;;;;5066323;28;19925;-66
2023/12/10 05:04:01;;;;;;;;;;;9.40;99.90;;;;;;5064718;28;19925;-66
2023/12/10 05:06:28;;;;;;;;;;;9.50;99.90;;;;;;5055953;28;19925;-66
2023/12/10 05:08:55;;;;;;;;;;;9.40;99.90;;;;;;5053011;28;20326;-66
2023/12/10 05:11:22;;;;;;;;;;;9.40;99.90;;;;;;5052961;28;19992;-66
2023/12/10 05:13:48;;;;;;;;;;;9.30;99.90;;;;;;5053441;28;19931;-66
2023/12/10 05:16:16;;;;;;;;;;;9.30;99.90;;;;;;5051584;28;19925;-66
2023/12/10 05:18:44;;;;;;;;;;;9.40;99.90;;;;;;5062794;28;20474;-66
2023/12/10 05:21:11;;;;;;;;;;;9.30;99.90;;;;;;5058542;28;20276;-66
2023/12/10 05:23:38;;;;;;;;;;;9.30;99.90;;;;;;5068578;28;19965;-66
2023/12/10 05:26:05;;;;;;;;;;;9.30;99.90;;;;;;5071798;28;19924;-66
2023/12/10 05:28:32;;;;;;;;;;;9.30;99.90;;;;;;5055294;28;19928;-66
2023/12/10 05:30:59;;;;;;;;;;;9.30;99.90;;;;;;5067541;28;19970;-66
2023/12/10 05:33:25;;;;;;;;;;;9.30;99.90;;;;;;5073395;28;19925;-66
2023/12/10 05:35:53;;;;;;;;;;;9.30;99.90;;;;;;5063349;28;19928;-66
2023/12/10 05:38:20;;;;;;;;;;;9.20;99.90;;;;;;5053209;28;19925;-66
2023/12/10 05:40:47;;;;;;;;;;;9.20;99.90;;;;;;5063887;28;19924;-65
2023/12/10 05:43:14;;;;;;;;;;;9.10;99.90;;;;;;5068145;28;19951;-65
2023/12/10 05:45:41;;;;;;;;;;;9.10;99.90;;;;;;5073249;28;20413;-65
2023/12/10 05:48:07;;;;;;;;;;;9.10;99.90;;;;;;5071043;28;19924;-65
2023/12/10 05:50:34;;;;;;;;;;;9.10;99.90;;;;;;5056543;28;19947;-65
2023/12/10 05:53:03;;;;;;;;;;;9.10;99.90;;;;;;5054179;28;19993;-65
2023/12/10 05:55:30;;;;;;;;;;;9.20;99.90;;;;;;5060272;28;19928;-65
2023/12/10 05:57:57;;;;;;;;;;;9.20;99.90;;;;;;5059893;28;19974;-65
2023/12/10 06:00:24;;;;;;;;;;;9.10;99.90;;;;;;5053313;28;19925;-65
2023/12/10 06:02:50;;;;;;;;;;;9.00;99.90;;;;;;5056465;28;19925;-65
2023/12/10 06:05:17;;;;;;;;;;;9.10;99.90;;;;;;5058790;28;20363;-65
2023/12/10 06:07:44;;;;;;;;;;;9.00;99.90;;;;;;5064645;28;19924;-65
2023/12/10 06:10:13;;;;;;;;;;;9.00;99.90;;;;;;5057698;28;19932;-65
2023/12/10 06:12:40;;;;;;;;;;;9.10;99.90;;;;;;5042436;28;19931;-66
2023/12/10 06:15:06;;;;;;;;;;;9.10;99.90;;;;;;5046863;28;19925;-66
2023/12/10 06:17:33;;;;;;;;;;;9.00;99.90;;;;;;5052186;28;19940;-65
2023/12/10 06:19:59;;;;;;;;;;;9.10;99.90;;;;;;5036004;28;19979;-65
2023/12/10 06:22:26;;;;;;;;;;;9.00;99.90;;;;;;5046883;28;19932;-66
2023/12/10 06:24:53;;;;;;;;;;;9.00;99.90;;;;;;5047431;28;19925;-66
2023/12/10 06:27:21;;;;;;;;;;;9.00;99.90;;;;;;5053538;28;19955;-66
2023/12/10 06:29:49;;;;;;;;;;;9.00;99.90;;;;;;5033759;28;19925;-66
2023/12/10 06:32:16;;;;;;;;;;;9.00;99.90;;;;;;5043563;28;19925;-66
2023/12/10 06:34:43;;;;;;;;;;;8.90;99.90;;;;;;5032143;28;20363;-65
2023/12/10 06:37:10;;;;;;;;;;;8.90;99.90;;;;;;5046795;28;19994;-65
2023/12/10 06:39:37;;;;;;;;;;;8.90;99.90;;;;;;5047634;28;20268;-65
2023/12/10 06:42:03;;;;;;;;;;;8.90;99.90;;;;;;5045594;28;19932;-66
2023/12/10 06:44:34;;;;;;;;;;;8.90;99.90;;;;;;5051136;28;19931;-65
2023/12/10 06:47:01;;;;;;;;;;;8.90;99.90;;;;;;5041390;28;19931;-65
2023/12/10 06:49:28;;;;;;;;;;;8.90;99.90;;;;;;5038946;28;19925;-65
2023/12/10 06:51:54;;;;;;;;;;;8.90;99.90;;;;;;5049585;28;19929;-65
2023/12/10 06:54:21;;;;;;;;;;;8.90;99.90;;;;;;5050570;28;19970;-65
2023/12/10 06:56:48;;;;;;;;;;;8.90;99.90;;;;;;5047241;28;19995;-65
2023/12/10 06:59:15;;;;;;;;;;;8.90;99.90;;;;;;5049017;28;20432;-66
2023/12/10 07:01:43;;;;;;;;;;;8.90;99.90;;;;;;5041898;28;19968;-65
2023/12/10 07:04:10;;;;;;;;;;;8.80;99.90;;;;;;5048343;28;19971;-66
2023/12/10 07:06:37;;;;;;;;;;;8.80;99.90;;;;;;5051391;28;20618;-65
2023/12/10 07:09:06;;;;;;;;;;;8.80;99.90;;;;;;5049147;28;19972;-66
2023/12/10 07:11:33;;;;;;;;;;;8.70;99.90;;;;;;5046956;28;19932;-66
2023/12/10 07:14:00;;;;;;;;;;;8.80;99.90;;;;;;5052085;28;19939;-65
2023/12/10 07:16:26;;;;;;;;;;;8.80;99.90;;;;;;5059756;28;19978;-65
2023/12/10 07:18:55;;;;;;;;;;;8.80;99.90;;;;;;5050693;28;19925;-65
2023/12/10 07:21:21;;;;;;;;;;;8.70;99.90;;;;;;5065394;28;20374;-66
2023/12/10 07:23:48;;;;;;;;;;;8.70;99.90;;;;;;5065424;28;19993;-66
2023/12/10 07:26:21;;;;;;;;;;;8.70;99.90;;;;;;5067110;28;20341;-66
2023/12/10 07:28:47;;;;;;;;;;;8.70;99.90;;;;;;5052974;28;19928;-67
2023/12/10 07:31:14;;;;;;;;;;;8.70;99.90;;;;;;5052155;28;20010;-67
2023/12/10 07:33:41;;;;;;;;;;;8.80;99.90;;;;;;5064905;28;19931;-67
2023/12/10 07:36:10;;;;;;;;;;;8.80;99.90;;;;;;5054731;28;19924;-67
2023/12/10 07:38:37;;;;;;;;;;;8.80;99.90;;;;;;5048867;28;19987;-66
2023/12/10 07:41:04;;;;;;;;;;;8.80;99.90;;;;;;5050591;28;19974;-66
2023/12/10 07:43:31;;;;;;;;;;;8.80;99.90;;;;;;5068388;28;19925;-66
2023/12/10 07:45:57;;;;;;;;;;;8.80;99.90;;;;;;5062751;28;19925;-67
2023/12/10 07:48:24;;;;;;;;;;;8.70;99.90;;;;;;5067850;28;19925;-67
2023/12/10 07:50:51;;;;;;;;;;;8.70;99.90;;;;;;5059961;28;20636;-67
2023/12/10 07:53:19;;;;;;;;;;;8.70;99.90;;;;;;5069381;28;19924;-67
2023/12/10 07:55:46;;;;;;;;;;;8.70;99.90;;;;;;5058148;28;19924;-67
2023/12/10 07:58:13;;;;;;;;;;;8.70;99.90;;;;;;5067990;28;20027;-66
2023/12/10 08:00:40;;;;;;;;;;;8.60;99.90;;;;;;5056373;28;19929;-65
2023/12/10 08:03:07;;;;;;;;;;;8.60;99.90;;;;;;5062288;28;19924;-67
2023/12/10 08:05:34;;;;;;;;;;;8.70;99.90;;;;;;5067526;28;19936;-67
2023/12/10 08:08:03;;;;;;;;;;;8.70;99.90;;;;;;5064501;28;20375;-66
2023/12/10 08:10:31;;;;;;;;;;;8.70;99.90;;;;;;5054012;28;19932;-66
2023/12/10 08:12:58;;;;;;;;;;;8.70;99.90;;;;;;5067694;28;20012;-67
2023/12/10 08:15:25;;;;;;;;;;;8.70;99.90;;;;;;5053504;28;19964;-67
2023/12/10 08:17:52;;;;;;;;;;;8.70;99.90;;;;;;5070650;28;19925;-67
2023/12/10 08:20:19;;;;;;;;;;;8.60;99.90;;;;;;5072435;28;20448;-67
2023/12/10 08:22:47;;;;;;;;;;;8.60;99.90;;;;;;5053607;28;20450;-67
2023/12/10 08:25:14;;;;;;;;;;;8.70;99.90;;;;;;5059842;28;20375;-66
2023/12/10 08:27:43;;;;;;;;;;;8.70;99.90;;;;;;5070884;28;20388;-67
2023/12/10 08:30:10;;;;;;;;;;;8.80;99.90;;;;;;5067436;28;19924;-66
2023/12/10 08:32:36;;;;;;;;;;;8.90;99.90;;;;;;5061782;28;20287;-67
2023/12/10 08:35:03;;;;;;;;;;;8.90;99.90;;;;;;5066075;28;19924;-66
2023/12/10 08:37:31;;;;;;;;;;;9.00;99.90;;;;;;5052105;28;19925;-67
2023/12/10 08:39:59;;;;;;;;;;;9.00;99.90;;;;;;5051945;28;19924;-66
2023/12/10 08:42:27;;;;;;;;;;;9.10;99.90;;;;;;5058918;28;20346;-66
2023/12/10 08:44:55;;;;;;;;;;;9.60;99.90;;;;;;5054737;28;19971;-66
2023/12/10 08:47:22;;;;;;;;;;;9.70;99.90;;;;;;5061113;28;19932;-66
2023/12/10 08:49:49;;;;;;;;;;;10.00;99.90;;;;;;5061264;28;19924;-67
2023/12/10 08:52:15;;;;;;;;;;;10.10;99.90;;;;;;5073435;28;19947;-65
2023/12/10 08:54:43;;;;;;;;;;;10.10;99.90;;;;;;5051218;28;19929;-67
2023/12/10 08:57:09;;;;;;;;;;;9.90;99.90;;;;;;5051740;28;19960;-66
2023/12/10 08:59:36;;;;;;;;;;;9.70;99.90;;;;;;5056109;28;19931;-65
2023/12/10 09:02:05;;;;;;;;;;;9.50;99.90;;;;;;5050276;28;20380;-65
2023/12/10 09:04:31;;;;;;;;;;;9.50;99.90;;;;;;5045272;28;19983;-66
2023/12/10 09:06:58;;;;;;;;;;;9.70;99.90;;;;;;5049480;28;19932;-65
2023/12/10 09:09:25;;;;;;;;;;;10.20;99.90;;;;;;5065882;28;19924;-66
2023/12/10 09:11:51;;;;;;;;;;;10.60;99.90;;;;;;5054024;28;19933;-66
2023/12/10 09:14:19;;;;;;;;;;;10.70;99.90;;;;;;5043057;28;19929;-66
2023/12/10 09:16:47;;;;;;;;;;;10.90;99.90;;;;;;5055149;28;19925;-67
2023/12/10 09:19:16;;;;;;;;;;;10.80;99.90;;;;;;5035086;28;20549;-67
2023/12/10 09:21:45;;;;;;;;;;;10.40;99.90;;;;;;5044024;28;19924;-66
2023/12/10 09:24:12;;;;;;;;;;;10.00;99.90;;;;;;5057788;28;19932;-65
2023/12/10 09:26:39;;;;;;;;;;;9.90;99.90;;;;;;5063577;28;20331;-66
2023/12/10 09:29:05;;;;;;;;;;;9.90;99.90;;;;;;5051997;28;20276;-66
2023/12/10 09:31:32;;;;;;;;;;;9.90;99.90;;;;;;5054950;28;19975;-67
2023/12/10 09:33:59;;;;;;;;;;;9.90;99.90;;;;;;5040500;28;20288;-67
2023/12/10 09:36:27;;;;;;;;;;;9.90;99.90;;;;;;5049781;28;19925;-66
2023/12/10 09:38:54;;;;;;;;;;;10.00;99.90;;;;;;5056653;28;19933;-65
2023/12/10 09:41:21;;;;;;;;;;;10.00;99.90;;;;;;5060536;28;19925;-66
2023/12/10 09:43:47;;;;;;;;;;;10.00;99.90;;;;;;5071077;28;19924;-67
2023/12/10 09:46:14;;;;;;;;;;;10.00;99.90;;;;;;5056611;28;19929;-67
2023/12/10 09:48:42;;;;;;;;;;;10.00;99.90;;;;;;5055948;28;19971;-67
2023/12/10 09:51:12;;;;;;;;;;;10.10;99.90;;;;;;5046159;28;19929;-67
2023/12/10 09:53:41;;;;;;;;;;;10.10;99.90;;;;;;5046644;28;19932;-66
2023/12/10 09:56:08;;;;;;;;;;;10.10;99.90;;;;;;5048015;28;19925;-67
2023/12/10 09:58:34;;;;;;;;;;;10.10;99.90;;;;;;5065304;28;20398;-67
2023/12/10 10:01:07;;;;;;;;;;;10.20;99.90;;;;;;5055694;28;20408;-66
2023/12/10 10:03:35;;;;;;;;;;;10.30;99.90;;;;;;5050639;28;19932;-66
2023/12/10 10:06:02;;;;;;;;;;;10.30;99.90;;;;;;5051959;28;19928;-66
2023/12/10 10:08:29;;;;;;;;;;;10.30;99.90;;;;;;5051542;28;19933;-66
2023/12/10 10:10:57;;;;;;;;;;;10.40;99.90;;;;;;5046859;28;20039;-66
2023/12/10 10:13:24;;;;;;;;;;;10.50;99.90;;;;;;5061883;28;19981;-66
2023/12/10 10:15:53;;;;;;;;;;;10.30;99.90;;;;;;5050810;28;19933;-66
2023/12/10 10:18:20;;;;;;;;;;;10.70;99.90;;;;;;5052757;28;20283;-66
2023/12/10 10:20:47;;;;;;;;;;;10.70;99.90;;;;;;5052001;28;20323;-66
2023/12/10 10:23:14;;;;;;;;;;;10.70;99.90;;;;;;5059494;28;19929;-65
2023/12/10 10:25:41;;;;;;;;;;;10.60;99.90;;;;;;5051462;28;20698;-66
2023/12/10 10:28:10;;;;;;;;;;;10.60;99.90;;;;;;5050540;28;19925;-66
2023/12/10 10:30:36;;;;;;;;;;;10.60;99.90;;;;;;5050221;28;19970;-66
2023/12/10 10:33:03;;;;;;;;;;;10.80;99.90;;;;;;5051750;28;19993;-66
2023/12/10 10:35:30;;;;;;;;;;;10.90;99.90;;;;;;5045734;28;19924;-66
2023/12/10 10:37:57;;;;;;;;;;;10.90;99.90;;;;;;5065362;28;19924;-66
2023/12/10 10:40:24;;;;;;;;;;;10.90;99.90;;;;;;5052246;28;19978;-66
2023/12/10 10:42:51;;;;;;;;;;;10.80;99.90;;;;;;5051315;28;19925;-67
2023/12/10 10:45:19;;;;;;;;;;;10.80;99.90;;;;;;5062322;28;19931;-66
2023/12/10 10:47:46;;;;;;;;;;;10.70;99.90;;;;;;5068077;28;20415;-66
2023/12/10 10:50:13;;;;;;;;;;;10.70;99.90;;;;;;5045188;28;19924;-66
2023/12/10 10:52:42;;;;;;;;;;;10.70;99.90;;;;;;5067654;28;19924;-66
2023/12/10 10:55:09;;;;;;;;;;;10.70;99.90;;;;;;5032643;28;20009;-66
2023/12/10 10:57:36;;;;;;;;;;;10.70;99.90;;;;;;5044832;28;20002;-66
2023/12/10 11:00:31;;;;;;;;;;;10.70;99.90;;;;;;5054592;28;19932;-66
2023/12/10 11:03:02;;;;;;;;;;;10.70;99.90;;;;;;5035065;28;20300;-66
2023/12/10 11:05:32;;;;;;;;;;;10.80;99.90;;;;;;5031876;28;20326;-67
2023/12/10 11:07:59;;;;;;;;;;;10.80;99.90;;;;;;5048191;28;19924;-67
2023/12/10 11:10:26;;;;;;;;;;;10.80;99.90;;;;;;5042060;28;19932;-66
2023/12/10 11:12:54;;;;;;;;;;;10.80;99.90;;;;;;5039061;28;20016;-65
2023/12/10 11:15:23;;;;;;;;;;;10.90;99.90;;;;;;5056386;28;19932;-67
2023/12/10 11:17:51;;;;;;;;;;;10.90;99.90;;;;;;5057014;28;19939;-65
2023/12/10 11:20:30;;;;;;;;;;;11.00;99.90;;;;;;5055331;28;19928;-66
2023/12/10 11:22:57;;;;;;;;;;;11.10;99.90;;;;;;5062906;28;19925;-67
2023/12/10 11:25:24;;;;;;;;;;;11.20;99.90;;;;;;5058039;28;19929;-67
2023/12/10 11:27:51;;;;;;;;;;;11.30;99.90;;;;;;5056790;28;19929;-67
2023/12/10 11:30:18;;;;;;;;;;;11.30;99.90;;;;;;5054412;28;19928;-67
2023/12/10 11:32:45;;;;;;;;;;;11.30;99.90;;;;;;5056049;28;20408;-68
2023/12/10 11:35:14;;;;;;;;;;;11.20;99.90;;;;;;5054411;28;19925;-67
2023/12/10 11:37:42;;;;;;;;;;;11.20;99.90;;;;;;5051712;28;19924;-68
2023/12/10 11:40:10;;;;;;;;;;;11.10;99.90;;;;;;5046556;28;19987;-67
2023/12/10 11:42:37;;;;;;;;;;;11.10;99.90;;;;;;5050225;28;19925;-67
2023/12/10 11:45:04;;;;;;;;;;;11.10;99.90;;;;;;5059709;28;19928;-68
2023/12/10 11:47:31;;;;;;;;;;;11.00;99.90;;;;;;5067833;28;19925;-68
2023/12/10 11:49:58;;;;;;;;;;;11.10;99.90;;;;;;5044227;28;19929;-68
2023/12/10 11:52:25;;;;;;;;;;;11.10;99.90;;;;;;5039744;28;19932;-66
2023/12/10 11:54:53;;;;;;;;;;;11.10;99.90;;;;;;5050087;28;20368;-66
2023/12/10 11:57:20;;;;;;;;;;;11.10;99.90;;;;;;5059908;28;19932;-66
2023/12/10 11:59:48;;;;;;;;;;;11.10;99.90;;;;;;5052025;28;22340;-67
2023/12/10 12:02:15;;;;;;;;;;;11.10;99.90;;;;;;5052942;28;20317;-67
2023/12/10 12:04:42;;;;;;;;;;;11.20;99.90;;;;;;5053181;28;20006;-67
2023/12/10 12:07:22;;;;;;;;;;;11.20;99.90;;;;;;5051067;28;19972;-68
2023/12/10 12:09:49;;;;;;;;;;;11.20;99.90;;;;;;5044636;28;20075;-69
2023/12/10 12:12:19;;;;;;;;;;;11.20;99.90;;;;;;5050722;28;19925;-68
2023/12/10 12:14:46;;;;;;;;;;;11.10;99.90;;;;;;5056470;28;19933;-68
2023/12/10 12:17:15;;;;;;;;;;;11.10;99.90;;;;;;5051643;28;19929;-68
2023/12/10 12:19:42;;;;;;;;;;;11.10;99.90;;;;;;5049198;28;20379;-70
2023/12/10 12:22:09;;;;;;;;;;;11.10;99.90;;;;;;5052117;28;20452;-69
2023/12/10 12:24:38;;;;;;;;;;;11.10;99.90;;;;;;5042178;28;19936;-68
2023/12/10 12:27:06;;;;;;;;;;;11.10;99.90;;;;;;5045702;28;19924;-69
2023/12/10 12:29:34;;;;;;;;;;;10.90;99.90;;;;;;5049168;28;19978;-68
2023/12/10 12:32:02;;;;;;;;;;;10.90;99.90;;;;;;5041320;28;19987;-68
2023/12/10 12:34:29;;;;;;;;;;;10.90;99.90;;;;;;5050094;28;20040;-67
2023/12/10 12:36:57;;;;;;;;;;;10.80;99.90;;;;;;5049649;28;20375;-68
2023/12/10 12:39:24;;;;;;;;;;;10.80;99.90;;;;;;5052536;28;19925;-68
2023/12/10 12:41:51;;;;;;;;;;;10.80;99.90;;;;;;5049172;28;19929;-69
2023/12/10 12:44:19;;;;;;;;;;;10.70;99.90;;;;;;5050204;28;20002;-69
2023/12/10 12:46:48;;;;;;;;;;;10.70;99.90;;;;;;5048671;28;19932;-68
2023/12/10 12:49:14;;;;;;;;;;;10.70;99.90;;;;;;5040300;28;20008;-68
2023/12/10 12:51:41;;;;;;;;;;;10.60;99.90;;;;;;5063952;28;20379;-69
2023/12/10 12:54:09;;;;;;;;;;;10.50;99.90;;;;;;5050530;28;20395;-69
2023/12/10 12:56:36;;;;;;;;;;;10.50;99.90;;;;;;5059581;28;19928;-69
2023/12/10 12:59:10;;;;;;;;;;;10.50;99.90;;;;;;5044672;28;19943;-69
2023/12/10 13:01:37;;;;;;;;;;;10.40;99.90;;;;;;5042761;28;19939;-68
2023/12/10 13:04:06;;;;;;;;;;;10.30;99.90;;;;;;5053012;28;19933;-69
2023/12/10 13:06:32;;;;;;;;;;;10.40;99.90;;;;;;5041958;28;20306;-69
2023/12/10 13:08:59;;;;;;;;;;;10.40;99.90;;;;;;5045880;28;19929;-69
2023/12/10 13:11:27;;;;;;;;;;;10.30;99.90;;;;;;5041847;28;19933;-69
2023/12/10 13:13:54;;;;;;;;;;;10.30;99.90;;;;;;5040868;28;20059;-69
2023/12/10 13:16:21;;;;;;;;;;;10.30;99.90;;;;;;5052637;28;19930;-68
2023/12/10 13:18:48;;;;;;;;;;;10.30;99.90;;;;;;5040972;28;19931;-68
2023/12/10 13:21:17;;;;;;;;;;;10.30;99.90;;;;;;5051538;28;20163;-68
2023/12/10 13:23:44;;;;;;;;;;;11.20;99.90;;;;;;5043226;28;19935;-68
2023/12/10 13:26:11;;;;;;;;;;;10.20;99.90;;;;;;5034489;28;20011;-68
2023/12/10 13:28:38;;;;;;;;;;;10.10;99.90;;;;;;5042993;28;19931;-68
2023/12/10 13:31:06;;;;;;;;;;;10.10;99.90;;;;;;5038442;28;19937;-69
2023/12/10 13:33:33;;;;;;;;;;;10.10;99.90;;;;;;5036184;28;19932;-68
2023/12/10 13:36:00;;;;;;;;;;;10.10;99.90;;;;;;5031576;28;20387;-69
2023/12/10 13:38:34;;;;;;;;;;;10.00;99.90;;;;;;5038147;28;19929;-69
2023/12/10 13:41:27;;;;;;;;;;;10.00;99.90;;;;;;5041393;28;19925;-69
2023/12/10 13:43:55;;;;;;;;;;;10.00;99.90;;;;;;5034169;28;19933;-69
2023/12/10 13:46:22;;;;;;;;;;;10.00;99.90;;;;;;5042521;28;20299;-69
2023/12/10 13:48:51;;;;;;;;;;;10.00;99.90;;;;;;5038405;28;19979;-70
2023/12/10 13:51:18;;;;;;;;;;;10.00;99.90;;;;;;5042142;28;19925;-69
2023/12/10 13:53:46;;;;;;;;;;;10.00;99.90;;;;;;5040051;28;19925;-70
2023/12/10 13:56:14;;;;;;;;;;;9.90;99.90;;;;;;5044830;28;19924;-67
2023/12/10 13:58:41;;;;;;;;;;;9.80;99.90;;;;;;5050592;28;19952;-70
2023/12/10 14:01:08;;;;;;;;;;;9.80;99.90;;;;;;5036786;28;19933;-68
2023/12/10 14:03:36;;;;;;;;;;;9.80;99.90;;;;;;5053882;22;20422;-68
2023/12/10 14:06:04;;;;;;;;;;;9.80;99.90;;;;;;5056310;28;19954;-69
2023/12/10 14:08:32;;;;;;;;;;;9.70;99.90;;;;;;5063707;28;20390;-69
2023/12/10 14:11:02;;;;;;;;;;;9.70;99.90;;;;;;5059621;28;20161;-68
2023/12/10 14:13:30;;;;;;;;;;;9.70;99.90;;;;;;5064051;28;19928;-68
2023/12/10 14:15:57;;;;;;;;;;;9.70;99.90;;;;;;5065736;28;19982;-69
2023/12/10 14:18:24;;;;;;;;;;;9.70;99.90;;;;;;5061842;28;19956;-65
2023/12/10 14:20:54;;;;;;;;;;;9.70;99.90;;;;;;5063915;28;20521;-64
2023/12/10 14:23:31;;;;;;;;;;;9.70;99.90;;;;;;5066620;28;20532;-64
2023/12/10 14:26:01;;;;;;;;;;;9.70;99.90;;;;;;5061605;28;19928;-64